createdAt,value
2023-01-29T00:02:16.093Z,4.53
2023-01-29T00:04:43.470Z,6.60
2023-01-29T00:07:10.884Z,4.17
2023-01-29T00:09:38.239Z,5.07
2023-01-29T00:12:05.410Z,9.60
2023-01-29T00:14:32.763Z,3.73
2023-01-29T00:17:00.273Z,5.13
2023-01-29T00:19:27.817Z,7.63
2023-01-29T00:21:55.315Z,7.77
2023-01-29T00:24:22.874Z,5.63
2023-01-29T00:26:50.253Z,3.80
2023-01-29T00:29:18.409Z,7.33
2023-01-29T00:31:46.260Z,4.13
2023-01-29T00:34:13.678Z,4.10
2023-01-29T00:36:41.207Z,3.90
2023-01-29T00:39:10.747Z,3.73
2023-01-29T00:41:57.168Z,4.07
2023-01-29T00:44:43.161Z,5.07
2023-01-29T00:47:29.147Z,8.27
2023-01-29T00:49:56.831Z,5.73
2023-01-29T00:52:24.630Z,5.33
2023-01-29T00:54:58.521Z,3.93
2023-01-29T00:57:28.824Z,3.37
2023-01-29T00:59:56.264Z,5.83
2023-01-29T01:02:42.543Z,5.30
2023-01-29T01:05:14.332Z,7.47
2023-01-29T01:07:41.813Z,3.63
2023-01-29T01:10:21.353Z,4.80
2023-01-29T01:13:05.499Z,6.97
2023-01-29T01:15:37.308Z,6.67
2023-01-29T01:18:04.959Z,3.42
2023-01-29T01:20:35.399Z,4.57
2023-01-29T01:23:03.098Z,5.07
2023-01-29T01:25:30.435Z,3.60
2023-01-29T01:30:26.274Z,8.70
2023-01-29T01:32:53.628Z,5.07
2023-01-29T01:35:21.103Z,3.10
2023-01-29T01:37:48.428Z,3.07
2023-01-29T01:40:20.380Z,3.20
2023-01-29T01:42:53.750Z,6.28
2023-01-29T01:45:25.870Z,2.67
2023-01-29T01:48:11.388Z,3.80
2023-01-29T01:51:03.326Z,5.30
2023-01-29T01:53:38.534Z,7.05
2023-01-29T01:56:10.572Z,6.43
2023-01-29T01:58:41.053Z,5.35
2023-01-29T02:01:09.794Z,3.87
2023-01-29T02:04:06.598Z,5.80
2023-01-29T02:06:54.151Z,3.37
2023-01-29T02:09:34.364Z,3.53
2023-01-29T02:12:11.253Z,5.10
2023-01-29T02:14:41.593Z,2.77
2023-01-29T02:17:12.854Z,3.10
2023-01-29T02:19:58.426Z,4.30
2023-01-29T02:22:40.210Z,4.10
2023-01-29T02:25:42.839Z,4.28
2023-01-29T02:28:29.735Z,5.32
2023-01-29T02:31:09.761Z,6.47
2023-01-29T02:34:01.532Z,4.90
2023-01-29T02:36:45.743Z,2.93
2023-01-29T02:39:29.442Z,5.80
2023-01-29T02:42:16.700Z,4.43
2023-01-29T02:44:48.674Z,4.77
2023-01-29T02:47:29.059Z,4.88
2023-01-29T02:50:26.649Z,3.47
2023-01-29T02:53:04.302Z,3.07
2023-01-29T02:55:38.146Z,4.30
2023-01-29T02:58:18.327Z,8.50
2023-01-29T03:00:49.394Z,5.27
2023-01-29T03:03:26.110Z,3.80
2023-01-29T03:06:19.417Z,3.27
2023-01-29T03:08:54.060Z,3.13
2023-01-29T03:11:22.098Z,4.37
2023-01-29T03:14:03.909Z,4.97
2023-01-29T03:16:45.014Z,4.57
2023-01-29T03:19:20.822Z,4.27
2023-01-29T03:21:59.106Z,4.53
2023-01-29T03:25:00.416Z,4.23
2023-01-29T03:27:56.718Z,5.27
2023-01-29T03:30:47.059Z,3.47
2023-01-29T03:33:32.847Z,5.23
2023-01-29T03:36:08.210Z,3.28
2023-01-29T03:38:36.131Z,3.20
2023-01-29T03:41:23.742Z,4.07
2023-01-29T03:44:21.827Z,2.67
2023-01-29T03:47:14.037Z,4.87
2023-01-29T03:50:05.372Z,3.78
2023-01-29T03:52:47.740Z,5.67
2023-01-29T03:55:40.747Z,4.47
2023-01-29T03:59:00.330Z,5.77
2023-01-29T04:01:51.569Z,6.20
2023-01-29T04:04:39.236Z,3.50
2023-01-29T04:07:14.076Z,1.47
2023-01-29T04:09:49.826Z,3.30
2023-01-29T04:12:26.077Z,6.57
2023-01-29T04:14:55.846Z,4.60
2023-01-29T04:17:32.807Z,2.00
2023-01-29T04:20:11.340Z,2.70
2023-01-29T04:22:46.057Z,4.40
2023-01-29T04:25:26.609Z,5.63
2023-01-29T04:28:25.161Z,5.43
2023-01-29T04:31:00.058Z,5.73
2023-01-29T04:34:21.762Z,3.80
2023-01-29T04:36:56.059Z,4.40
2023-01-29T04:39:42.982Z,5.93
2023-01-29T04:42:26.928Z,7.30
2023-01-29T04:45:28.608Z,5.57
2023-01-29T04:48:22.317Z,6.80
2023-01-29T04:51:22.631Z,4.00
2023-01-29T04:54:13.803Z,4.03
2023-01-29T04:57:01.968Z,3.93
2023-01-29T05:00:12.444Z,4.90
2023-01-29T05:02:41.767Z,3.47
2023-01-29T05:05:10.524Z,1.87
2023-01-29T05:07:39.559Z,3.50
2023-01-29T05:10:10.317Z,6.57
2023-01-29T05:12:38.690Z,4.93
2023-01-29T05:15:13.431Z,4.57
2023-01-29T05:17:41.159Z,3.80
2023-01-29T05:20:11.281Z,4.90
2023-01-29T05:22:41.386Z,2.97
2023-01-29T05:25:31.083Z,10.17
2023-01-29T05:28:11.764Z,6.97
2023-01-29T05:30:40.037Z,6.30
2023-01-29T05:33:18.860Z,3.37
2023-01-29T05:35:47.105Z,4.43
2023-01-29T05:38:14.717Z,5.70
2023-01-29T05:40:42.131Z,5.90
2023-01-29T05:43:17.087Z,5.27
2023-01-29T05:45:51.776Z,4.43
2023-01-29T05:48:19.137Z,3.97
2023-01-29T05:50:46.517Z,5.30
2023-01-29T05:53:13.856Z,5.07
2023-01-29T05:55:44.104Z,6.67
2023-01-29T05:58:11.577Z,3.03
2023-01-29T06:00:38.961Z,3.90
2023-01-29T06:03:06.454Z,5.40
2023-01-29T06:05:33.967Z,5.70
2023-01-29T06:08:01.327Z,7.43
2023-01-29T06:10:28.683Z,8.30
2023-01-29T06:12:56.017Z,3.00
2023-01-29T06:15:24.803Z,5.17
2023-01-29T06:17:54.548Z,3.33
2023-01-29T06:20:22.077Z,3.50
2023-01-29T06:22:49.424Z,4.23
2023-01-29T06:25:16.815Z,7.27
2023-01-29T06:27:44.239Z,4.57
2023-01-29T06:30:11.944Z,5.47
2023-01-29T06:32:39.319Z,4.57
2023-01-29T06:35:07.077Z,2.73
2023-01-29T06:37:34.425Z,4.17
2023-01-29T06:40:05.326Z,5.13
2023-01-29T06:42:34.776Z,5.37
2023-01-29T06:45:04.612Z,11.53
2023-01-29T06:47:32.072Z,5.30
2023-01-29T06:49:59.400Z,6.00
2023-01-29T06:52:29.004Z,3.53
2023-01-29T06:54:56.958Z,3.53
2023-01-29T06:57:24.413Z,5.50
2023-01-29T06:59:51.737Z,3.23
2023-01-29T07:02:19.147Z,4.33
2023-01-29T07:04:46.512Z,4.17
2023-01-29T07:07:13.922Z,8.57
2023-01-29T07:09:42.050Z,6.17
2023-01-29T07:12:10.936Z,5.60
2023-01-29T07:14:38.359Z,4.57
2023-01-29T07:17:05.753Z,4.77
2023-01-29T07:19:33.082Z,5.80
2023-01-29T07:22:02.495Z,5.13
2023-01-29T07:24:30.061Z,6.80
2023-01-29T07:26:57.535Z,7.37
2023-01-29T07:29:24.946Z,4.80
2023-01-29T07:31:52.416Z,8.93
2023-01-29T07:34:19.940Z,5.60
2023-01-29T07:36:47.307Z,3.70
2023-01-29T07:39:14.710Z,10.77
2023-01-29T07:41:42.043Z,3.83
2023-01-29T07:44:16.437Z,6.97
2023-01-29T07:46:43.871Z,6.17
2023-01-29T07:49:11.361Z,3.93
2023-01-29T07:51:38.737Z,5.53
2023-01-29T07:54:06.170Z,4.37
2023-01-29T07:56:33.582Z,7.50
2023-01-29T07:59:01.166Z,9.53
2023-01-29T08:01:28.606Z,29.17
2023-01-29T08:03:56.005Z,27.43
2023-01-29T08:06:23.366Z,39.50
2023-01-29T08:08:52.154Z,8.53
2023-01-29T08:11:19.508Z,6.27
2023-01-29T08:13:46.908Z,10.03
2023-01-29T08:16:14.492Z,6.87
2023-01-29T08:18:46.218Z,7.30
2023-01-29T08:21:14.048Z,6.35
2023-01-29T08:23:41.559Z,5.57
2023-01-29T08:26:09.251Z,8.70
2023-01-29T08:28:38.633Z,3.43
2023-01-29T08:31:13.311Z,2.57
2023-01-29T08:33:40.730Z,5.20
2023-01-29T08:36:09.292Z,5.03
2023-01-29T08:38:36.958Z,3.60
2023-01-29T08:41:04.397Z,5.23
2023-01-29T08:43:31.848Z,6.20
2023-01-29T08:45:59.290Z,8.57
2023-01-29T08:48:26.826Z,4.97
2023-01-29T08:50:56.784Z,5.20
2023-01-29T08:53:24.930Z,6.43
2023-01-29T08:55:52.535Z,10.93
2023-01-29T08:58:20.185Z,4.83
2023-01-29T09:00:47.683Z,8.17
2023-01-29T09:03:15.001Z,7.60
2023-01-29T09:05:42.608Z,5.43
2023-01-29T09:08:10.408Z,8.57
2023-01-29T09:10:37.898Z,5.90
2023-01-29T09:13:05.344Z,4.53
2023-01-29T09:15:32.700Z,5.33
2023-01-29T09:18:04.330Z,7.53
2023-01-29T09:20:31.798Z,4.20
2023-01-29T09:22:59.313Z,5.33
2023-01-29T09:25:26.715Z,3.90
2023-01-29T09:27:54.585Z,9.10
2023-01-29T09:30:21.950Z,6.07
2023-01-29T09:32:53.573Z,5.57
2023-01-29T09:35:22.890Z,5.10
2023-01-29T09:37:51.541Z,5.37
2023-01-29T09:40:26.688Z,3.13
2023-01-29T09:43:15.568Z,2.70
2023-01-29T09:46:13.406Z,6.27
2023-01-29T09:48:41.065Z,6.27
2023-01-29T09:51:23.774Z,3.90
2023-01-29T09:56:28.881Z,2.33
2023-01-29T09:59:00.646Z,8.40
2023-01-29T10:01:34.922Z,4.67
2023-01-29T10:04:52.681Z,5.30
2023-01-29T10:07:57.777Z,6.33
2023-01-29T10:10:45.975Z,8.27
2023-01-29T10:13:48.654Z,2.37
2023-01-29T10:16:54.499Z,5.95
2023-01-29T10:19:59.039Z,8.20
2023-01-29T10:22:45.277Z,5.90
2023-01-29T10:25:18.622Z,3.90
2023-01-29T10:27:54.745Z,8.67
2023-01-29T10:30:38.704Z,4.07
2023-01-29T10:33:07.210Z,3.27
2023-01-29T10:35:44.171Z,5.37
2023-01-29T10:38:46.659Z,5.30
2023-01-29T10:41:29.136Z,3.70
2023-01-29T10:47:05.798Z,9.27
2023-01-29T10:49:48.894Z,6.67
2023-01-29T10:52:31.184Z,4.93
2023-01-29T10:55:24.799Z,13.07
2023-01-29T10:58:52.838Z,4.93
2023-01-29T11:01:20.317Z,5.77
2023-01-29T11:04:02.806Z,11.77
2023-01-29T11:06:35.810Z,6.78
2023-01-29T11:09:24.280Z,6.37
2023-01-29T11:11:57.860Z,8.10
2023-01-29T11:14:29.869Z,6.80
2023-01-29T11:16:57.226Z,9.75
2023-01-29T11:19:45.296Z,3.30
2023-01-29T11:22:20.140Z,11.13
2023-01-29T11:25:08.371Z,10.83
2023-01-29T11:27:50.710Z,7.73
2023-01-29T11:30:24.728Z,7.82
2023-01-29T11:33:25.977Z,7.00
2023-01-29T11:35:53.330Z,4.53
2023-01-29T11:38:24.559Z,11.13
2023-01-29T11:40:52.612Z,21.23
2023-01-29T11:43:32.530Z,8.17
2023-01-29T11:46:06.442Z,5.13
2023-01-29T11:48:39.580Z,9.43
2023-01-29T11:51:07.159Z,4.77
2023-01-29T11:53:35.777Z,3.40
2023-01-29T11:56:24.004Z,7.20
2023-01-29T11:58:53.375Z,4.47
2023-01-29T12:01:32.592Z,9.20
2023-01-29T12:04:00.223Z,8.97
2023-01-29T12:06:36.634Z,12.47
2023-01-29T12:09:19.519Z,8.10
2023-01-29T12:11:46.990Z,9.97
2023-01-29T12:14:33.389Z,18.40
2023-01-29T12:17:06.550Z,6.17
2023-01-29T12:19:43.750Z,10.83
2023-01-29T12:22:23.268Z,11.27
2023-01-29T12:25:07.870Z,11.07
2023-01-29T12:27:46.549Z,8.73
2023-01-29T12:30:29.419Z,3.97
2023-01-29T12:33:27.941Z,7.63
2023-01-29T12:36:09.282Z,8.23
2023-01-29T12:38:37.924Z,4.60
2023-01-29T12:41:46.184Z,11.83
2023-01-29T12:44:21.002Z,8.47
2023-01-29T12:46:55.025Z,6.97
2023-01-29T12:49:33.243Z,9.07
2023-01-29T12:52:39.116Z,7.43
2023-01-29T12:55:18.600Z,12.63
2023-01-29T12:57:58.955Z,8.70
2023-01-29T13:00:34.121Z,6.60
2023-01-29T13:03:43.583Z,9.60
2023-01-29T13:06:14.192Z,10.60
2023-01-29T13:08:42.408Z,13.37
2023-01-29T13:11:24.600Z,10.07
2023-01-29T13:13:56.719Z,16.75
2023-01-29T13:16:30.667Z,9.43
2023-01-29T13:19:00.810Z,6.83
2023-01-29T13:21:35.138Z,9.63
2023-01-29T13:24:12.459Z,19.17
2023-01-29T13:26:40.884Z,13.13
2023-01-29T13:29:13.571Z,10.80
2023-01-29T13:31:46.133Z,5.37
2023-01-29T13:34:34.954Z,9.57
2023-01-29T13:37:09.474Z,11.27
2023-01-29T13:39:47.359Z,4.53
2023-01-29T13:42:19.673Z,5.63
2023-01-29T13:47:39.551Z,12.35
2023-01-29T13:50:36.232Z,11.87
2023-01-29T13:53:05.853Z,4.33
2023-01-29T13:55:36.584Z,15.87
2023-01-29T13:58:04.758Z,6.07
2023-01-29T14:00:35.049Z,14.73
2023-01-29T14:03:05.175Z,12.57
2023-01-29T14:05:38.308Z,10.97
2023-01-29T14:08:17.480Z,5.67
2023-01-29T14:10:45.228Z,12.13
2023-01-29T14:13:18.427Z,7.40
2023-01-29T14:16:06.594Z,7.73
2023-01-29T14:18:36.104Z,13.83
2023-01-29T14:21:14.225Z,12.27
2023-01-29T14:23:59.846Z,8.67
2023-01-29T14:26:48.719Z,11.43
2023-01-29T14:29:25.577Z,8.73
2023-01-29T14:32:06.533Z,8.60
2023-01-29T14:34:48.015Z,8.47
2023-01-29T14:37:15.327Z,7.43
2023-01-29T14:39:45.782Z,11.80
2023-01-29T14:42:39.647Z,13.07
2023-01-29T14:45:26.295Z,12.50
2023-01-29T14:47:56.826Z,22.00
2023-01-29T14:50:31.756Z,23.30
2023-01-29T14:53:13.876Z,11.97
2023-01-29T14:55:51.752Z,11.18
2023-01-29T14:58:29.114Z,9.63
2023-01-29T15:00:58.135Z,9.97
2023-01-29T15:03:37.468Z,9.43
2023-01-29T15:06:06.132Z,7.77
2023-01-29T15:08:57.055Z,10.63
2023-01-29T15:11:47.597Z,13.10
2023-01-29T15:14:35.826Z,13.53
2023-01-29T15:17:23.126Z,4.73
2023-01-29T15:19:50.884Z,11.47
2023-01-29T15:22:23.457Z,8.23
2023-01-29T15:25:15.246Z,8.80
2023-01-29T15:27:44.047Z,9.77
2023-01-29T15:30:25.600Z,13.30
2023-01-29T15:32:53.074Z,15.43
2023-01-29T15:35:41.198Z,19.03
2023-01-29T15:38:24.066Z,35.30
2023-01-29T15:40:59.312Z,19.50
2023-01-29T15:43:32.020Z,14.20
2023-01-29T15:46:34.153Z,15.60
2023-01-29T15:49:07.739Z,11.10
2023-01-29T15:51:35.312Z,5.67
2023-01-29T15:54:05.882Z,8.67
2023-01-29T15:56:40.329Z,9.87
2023-01-29T15:59:17.313Z,8.60
2023-01-29T16:01:45.050Z,7.77
2023-01-29T16:04:22.437Z,16.53
2023-01-29T16:06:53.087Z,7.97
2023-01-29T16:09:23.922Z,11.70
2023-01-29T16:11:51.783Z,10.27
2023-01-29T16:14:23.280Z,9.87
2023-01-29T16:16:50.718Z,10.23
2023-01-29T16:19:29.557Z,6.23
2023-01-29T16:22:04.846Z,10.37
2023-01-29T16:24:34.579Z,9.83
2023-01-29T16:27:14.354Z,6.37
2023-01-29T16:29:42.066Z,7.57
2023-01-29T16:32:09.962Z,13.63
2023-01-29T16:34:40.917Z,11.63
2023-01-29T16:37:26.710Z,11.87
2023-01-29T16:39:54.048Z,10.93
2023-01-29T16:42:27.496Z,8.43
2023-01-29T16:45:00.120Z,8.60
2023-01-29T16:47:35.944Z,11.63
2023-01-29T16:50:40.507Z,5.37
2023-01-29T16:53:21.405Z,9.53
2023-01-29T16:55:49.812Z,8.97
2023-01-29T16:58:21.017Z,10.97
2023-01-29T17:01:03.725Z,7.43
2023-01-29T17:03:33.910Z,10.03
2023-01-29T17:06:26.236Z,12.10
2023-01-29T17:08:53.949Z,9.18
2023-01-29T17:11:33.926Z,8.20
2023-01-29T17:14:01.616Z,11.70
2023-01-29T17:16:37.647Z,8.43
2023-01-29T17:19:20.890Z,9.37
2023-01-29T17:21:48.364Z,11.90
2023-01-29T17:24:15.748Z,11.03
2023-01-29T17:26:43.306Z,7.33
2023-01-29T17:29:15.647Z,13.80
2023-01-29T17:34:15.858Z,14.23
2023-01-29T17:39:24.380Z,11.33
2023-01-29T17:41:57.618Z,12.00
2023-01-29T17:44:28.013Z,10.00
2023-01-29T17:46:55.434Z,10.17
2023-01-29T17:49:29.544Z,11.67
2023-01-29T17:51:57.219Z,15.50
2023-01-29T17:54:25.690Z,8.83
2023-01-29T17:56:53.884Z,10.80
2023-01-29T17:59:28.662Z,9.20
2023-01-29T18:01:56.117Z,11.60
2023-01-29T18:04:23.737Z,12.07
2023-01-29T18:06:52.868Z,9.40
2023-01-29T18:09:21.244Z,10.70
2023-01-29T18:11:49.469Z,9.17
2023-01-29T18:14:17.347Z,8.17
2023-01-29T18:16:45.464Z,9.43
2023-01-29T18:19:27.567Z,20.10
2023-01-29T18:21:55.052Z,20.58
2023-01-29T18:24:22.422Z,35.60
2023-01-29T18:26:51.092Z,23.33
2023-01-29T18:29:18.520Z,15.50
2023-01-29T18:31:49.356Z,13.40
2023-01-29T18:34:16.776Z,18.00
2023-01-29T18:36:46.965Z,13.53
2023-01-29T18:39:17.246Z,9.30
2023-01-29T18:41:44.665Z,11.87
2023-01-29T18:44:12.333Z,17.20
2023-01-29T18:46:39.740Z,12.57
2023-01-29T18:49:07.137Z,7.13
2023-01-29T18:51:34.576Z,8.37
2023-01-29T18:54:01.968Z,10.20
2023-01-29T18:56:29.377Z,10.00
2023-01-29T18:58:57.026Z,9.50
2023-01-29T19:01:25.763Z,13.20
2023-01-29T19:03:53.959Z,13.70
2023-01-29T19:06:21.376Z,14.63
2023-01-29T19:08:49.156Z,7.90
2023-01-29T19:11:16.660Z,12.60
2023-01-29T19:13:44.089Z,13.37
2023-01-29T19:16:13.351Z,14.87
2023-01-29T19:18:41.078Z,18.60
2023-01-29T19:21:11.282Z,9.77
2023-01-29T19:23:38.741Z,14.47
2023-01-29T19:26:06.425Z,9.17
2023-01-29T19:28:34.172Z,12.73
2023-01-29T19:31:02.001Z,8.47
2023-01-29T19:33:29.640Z,13.10
2023-01-29T19:35:58.418Z,9.93
2023-01-29T19:38:25.896Z,16.13
2023-01-29T19:40:55.064Z,9.40
2023-01-29T19:43:22.029Z,15.23
2023-01-29T19:45:50.994Z,9.27
2023-01-29T19:48:21.317Z,13.87
2023-01-29T19:51:00.365Z,8.77
2023-01-29T19:53:31.341Z,7.97
2023-01-29T19:56:11.769Z,8.97
2023-01-29T19:58:39.556Z,7.80
2023-01-29T20:01:19.807Z,8.03
2023-01-29T20:03:49.411Z,4.87
2023-01-29T20:06:19.495Z,9.10
2023-01-29T20:08:47.156Z,8.47
2023-01-29T20:11:19.660Z,9.57
2023-01-29T20:13:48.747Z,20.73
2023-01-29T20:16:17.626Z,9.30
2023-01-29T20:18:45.252Z,9.47
2023-01-29T20:21:16.075Z,10.63
2023-01-29T20:23:45.696Z,10.00
2023-01-29T20:26:15.803Z,12.47
2023-01-29T20:28:45.535Z,21.20
2023-01-29T20:31:12.475Z,12.07
2023-01-29T20:33:40.404Z,16.97
2023-01-29T20:36:11.476Z,19.70
2023-01-29T20:38:39.015Z,11.67
2023-01-29T20:41:18.474Z,15.80
2023-01-29T20:43:47.064Z,12.67
2023-01-29T20:46:14.854Z,9.33
2023-01-29T20:48:42.343Z,9.93
2023-01-29T20:51:15.784Z,11.97
2023-01-29T20:53:48.050Z,6.87
2023-01-29T20:58:43.306Z,8.47
2023-01-29T21:01:13.002Z,7.03
2023-01-29T21:03:40.772Z,9.60
2023-01-29T21:06:10.343Z,8.27
2023-01-29T21:08:38.140Z,11.63
2023-01-29T21:11:07.392Z,6.17
2023-01-29T21:13:34.833Z,10.73
2023-01-29T21:16:02.623Z,9.50
2023-01-29T21:18:30.319Z,9.57
2023-01-29T21:20:57.436Z,10.50
2023-01-29T21:23:24.801Z,17.97
2023-01-29T21:25:51.764Z,21.20
2023-01-29T21:28:19.180Z,25.70
2023-01-29T21:30:47.825Z,26.23
2023-01-29T21:33:15.277Z,22.93
2023-01-29T21:35:42.378Z,19.77
2023-01-29T21:38:09.439Z,22.07
2023-01-29T21:40:36.768Z,21.67
2023-01-29T21:43:13.550Z,20.33
2023-01-29T21:45:41.599Z,26.80
2023-01-29T21:48:10.952Z,20.10
2023-01-29T21:50:38.430Z,21.90
2023-01-29T21:53:05.811Z,21.40
2023-01-29T21:55:33.642Z,17.47
2023-01-29T21:58:01.077Z,28.97
2023-01-29T22:00:28.711Z,13.63
2023-01-29T22:02:56.145Z,11.13
2023-01-29T22:05:23.692Z,11.73
2023-01-29T22:07:51.091Z,7.93
2023-01-29T22:10:20.036Z,10.73
2023-01-29T22:12:47.825Z,10.60
2023-01-29T22:15:15.530Z,8.60
2023-01-29T22:17:43.761Z,10.10
2023-01-29T22:20:12.739Z,13.77
2023-01-29T22:22:40.386Z,4.83
2023-01-29T22:25:07.930Z,8.37
2023-01-29T22:27:35.373Z,6.13
2023-01-29T22:30:03.600Z,6.83
2023-01-29T22:32:33.129Z,5.97
2023-01-29T22:35:00.689Z,11.70
2023-01-29T22:37:28.260Z,6.23
2023-01-29T22:39:55.626Z,7.17
2023-01-29T22:42:22.569Z,8.40
2023-01-29T22:44:49.568Z,8.90
2023-01-29T22:47:17.043Z,12.53
2023-01-29T22:49:45.565Z,12.67
2023-01-29T22:52:16.531Z,9.53
2023-01-29T22:54:44.310Z,8.80
2023-01-29T22:57:13.476Z,6.47
2023-01-29T22:59:41.325Z,12.67
2023-01-29T23:02:08.857Z,6.00
2023-01-29T23:04:36.235Z,10.10
2023-01-29T23:07:04.119Z,10.90
2023-01-29T23:09:31.497Z,12.67
2023-01-29T23:11:58.927Z,9.63
2023-01-29T23:14:26.354Z,11.00
2023-01-29T23:16:53.714Z,14.93
2023-01-29T23:19:20.807Z,5.67
2023-01-29T23:21:48.168Z,12.17
2023-01-29T23:24:15.773Z,8.40
2023-01-29T23:27:01.618Z,10.20
2023-01-29T23:29:29.012Z,9.00
2023-01-29T23:31:56.385Z,10.23
2023-01-29T23:34:23.941Z,9.10
2023-01-29T23:36:51.293Z,6.63
2023-01-29T23:39:18.986Z,5.77
2023-01-29T23:41:46.338Z,7.03
2023-01-29T23:44:14.089Z,13.00
2023-01-29T23:46:41.472Z,3.07
2023-01-29T23:49:08.860Z,7.07
2023-01-29T23:51:36.209Z,15.93
2023-01-29T23:54:04.144Z,12.60
2023-01-29T23:56:31.548Z,8.10
2023-01-29T23:58:59.147Z,9.10
